createdAt,value
2023-01-08T00:02:10.765Z,99500.53
2023-01-08T00:04:39.264Z,99494.69
2023-01-08T00:09:52.284Z,99499.25
2023-01-08T00:12:21.337Z,99494.97
2023-01-08T00:14:48.610Z,99496.44
2023-01-08T00:17:16.995Z,99495.75
2023-01-08T00:19:47.726Z,99491.28
2023-01-08T00:22:15.424Z,99494.56
2023-01-08T00:24:46.983Z,99495.78
2023-01-08T00:27:14.302Z,99486.16
2023-01-08T00:29:48.572Z,99488.03
2023-01-08T00:32:17.885Z,99481.66
2023-01-08T00:34:47.740Z,99478.28
2023-01-08T00:37:19.016Z,99482.75
2023-01-08T00:39:55.706Z,99486.06
2023-01-08T00:42:25.759Z,99488.75
2023-01-08T00:44:57.318Z,99494.00
2023-01-08T00:47:26.577Z,99493.25
2023-01-08T00:52:38.231Z,99506.19
2023-01-08T00:55:09.391Z,99507.03
2023-01-08T00:57:39.151Z,99498.50
2023-01-08T01:00:15.344Z,99496.50
2023-01-08T01:02:45.899Z,99494.12
2023-01-08T01:05:17.556Z,99496.91
2023-01-08T01:07:47.302Z,99494.97
2023-01-08T01:10:20.224Z,99503.50
2023-01-08T01:12:51.655Z,99496.66
2023-01-08T01:15:22.923Z,99489.53
2023-01-08T01:17:50.812Z,99495.97
2023-01-08T01:20:18.575Z,99485.72
2023-01-08T01:22:50.238Z,99489.19
2023-01-08T01:25:17.930Z,99486.53
2023-01-08T01:27:47.448Z,99487.47
2023-01-08T01:30:16.343Z,99479.41
2023-01-08T01:32:44.288Z,99482.00
2023-01-08T01:35:15.222Z,99480.97
2023-01-08T01:37:42.802Z,99472.31
2023-01-08T01:40:13.050Z,99477.44
2023-01-08T01:42:43.168Z,99468.91
2023-01-08T01:45:24.687Z,99464.50
2023-01-08T01:48:04.861Z,99468.63
2023-01-08T01:50:52.310Z,99455.00
2023-01-08T01:53:21.465Z,99445.59
2023-01-08T01:55:49.682Z,99451.69
2023-01-08T01:58:27.674Z,99443.94
2023-01-08T02:01:01.806Z,99442.06
2023-01-08T02:03:33.377Z,99435.25
2023-01-08T02:06:41.173Z,99438.72
2023-01-08T02:09:37.916Z,99430.63
2023-01-08T02:12:26.093Z,99424.63
2023-01-08T02:15:18.566Z,99416.06
2023-01-08T02:18:34.175Z,99419.59
2023-01-08T02:21:14.096Z,99416.13
2023-01-08T02:24:10.034Z,99414.19
2023-01-08T02:26:40.455Z,99413.16
2023-01-08T02:29:23.689Z,99413.16
2023-01-08T02:31:52.321Z,99403.69
2023-01-08T02:34:20.702Z,99399.37
2023-01-08T02:36:56.984Z,99399.37
2023-01-08T02:39:49.691Z,99400.41
2023-01-08T02:42:33.462Z,99409.22
2023-01-08T02:45:30.684Z,99399.41
2023-01-08T02:48:13.358Z,99396.03
2023-01-08T02:51:06.448Z,99399.59
2023-01-08T02:53:42.575Z,99401.19
2023-01-08T02:56:18.270Z,99393.66
2023-01-08T02:58:48.070Z,99390.16
2023-01-08T03:01:20.441Z,99386.31
2023-01-08T03:04:04.186Z,99394.66
2023-01-08T03:06:34.193Z,99406.13
2023-01-08T03:09:03.008Z,99390.16
2023-01-08T03:11:38.306Z,99390.41
2023-01-08T03:14:20.963Z,99390.16
2023-01-08T03:17:22.336Z,99385.84
2023-01-08T03:20:24.126Z,99381.53
2023-01-08T03:22:56.665Z,99376.84
2023-01-08T03:25:28.095Z,99383.00
2023-01-08T03:28:03.423Z,99383.13
2023-01-08T03:30:32.257Z,99376.19
2023-01-08T03:33:03.202Z,99378.63
2023-01-08T03:35:34.276Z,99381.31
2023-01-08T03:38:18.093Z,99386.56
2023-01-08T03:40:59.605Z,99382.91
2023-01-08T03:43:29.250Z,99383.87
2023-01-08T03:46:01.564Z,99375.19
2023-01-08T03:48:31.498Z,99371.03
2023-01-08T03:51:02.631Z,99367.59
2023-01-08T03:53:31.215Z,99362.31
2023-01-08T03:56:00.036Z,99357.03
2023-01-08T03:58:33.334Z,99360.34
2023-01-08T04:01:09.737Z,99352.50
2023-01-08T04:03:42.064Z,99359.63
2023-01-08T04:06:09.480Z,99356.34
2023-01-08T04:08:37.363Z,99360.56
2023-01-08T04:11:04.825Z,99366.91
2023-01-08T04:13:35.452Z,99360.56
2023-01-08T04:16:06.724Z,99365.59
2023-01-08T04:18:35.124Z,99364.19
2023-01-08T04:21:08.707Z,99369.53
2023-01-08T04:23:38.564Z,99358.78
2023-01-08T04:26:09.683Z,99353.72
2023-01-08T04:28:40.181Z,99354.41
2023-01-08T04:31:10.774Z,99344.94
2023-01-08T04:33:42.387Z,99344.19
2023-01-08T04:36:13.751Z,99338.09
2023-01-08T04:38:42.728Z,99348.50
2023-01-08T04:41:13.818Z,99342.53
2023-01-08T04:43:44.242Z,99340.44
2023-01-08T04:46:15.500Z,99350.56
2023-01-08T04:48:44.550Z,99352.81
2023-01-08T04:51:13.676Z,99354.59
2023-01-08T04:53:45.940Z,99356.97
2023-01-08T04:56:14.277Z,99357.19
2023-01-08T04:58:42.760Z,99349.62
2023-01-08T05:01:19.464Z,99353.81
2023-01-08T05:03:52.759Z,99354.47
2023-01-08T05:06:23.335Z,99355.78
2023-01-08T05:08:51.897Z,99348.03
2023-01-08T05:11:23.892Z,99341.84
2023-01-08T05:13:55.609Z,99339.28
2023-01-08T05:16:26.138Z,99339.59
2023-01-08T05:18:55.977Z,99341.25
2023-01-08T05:21:25.255Z,99343.00
2023-01-08T05:23:56.806Z,99337.13
2023-01-08T05:26:27.349Z,99333.06
2023-01-08T05:28:55.389Z,99344.22
2023-01-08T05:31:23.762Z,99333.53
2023-01-08T05:34:03.228Z,99338.97
2023-01-08T05:36:31.167Z,99338.31
2023-01-08T05:39:02.656Z,99341.03
2023-01-08T05:41:32.062Z,99330.28
2023-01-08T05:44:02.074Z,99327.84
2023-01-08T05:46:33.390Z,99328.03
2023-01-08T05:49:02.635Z,99333.50
2023-01-08T05:51:30.803Z,99320.50
2023-01-08T05:53:58.121Z,99332.63
2023-01-08T05:56:28.120Z,99322.28
2023-01-08T05:58:56.178Z,99314.94
2023-01-08T06:01:23.472Z,99322.41
2023-01-08T06:03:56.313Z,99312.88
2023-01-08T06:06:23.899Z,99314.72
2023-01-08T06:08:58.907Z,99301.63
2023-01-08T06:11:30.053Z,99306.87
2023-01-08T06:13:59.051Z,99304.41
2023-01-08T06:16:28.030Z,99301.53
2023-01-08T06:18:56.602Z,99295.69
2023-01-08T06:21:26.352Z,99304.56
2023-01-08T06:23:55.850Z,99297.38
2023-01-08T06:26:23.824Z,99293.06
2023-01-08T06:28:52.633Z,99300.00
2023-01-08T06:31:21.057Z,99308.78
2023-01-08T06:33:50.462Z,99289.59
2023-01-08T06:36:21.992Z,99294.56
2023-01-08T06:38:50.444Z,99295.59
2023-01-08T06:41:20.383Z,99288.66
2023-01-08T06:43:47.849Z,99285.22
2023-01-08T06:46:15.861Z,99294.91
2023-01-08T06:48:48.497Z,99288.69
2023-01-08T06:51:18.192Z,99295.75
2023-01-08T06:53:51.965Z,99291.84
2023-01-08T06:56:23.268Z,99291.09
2023-01-08T06:58:55.458Z,99297.19
2023-01-08T07:01:26.925Z,99296.12
2023-01-08T07:03:56.041Z,99288.47
2023-01-08T07:06:25.332Z,99293.72
2023-01-08T07:08:52.782Z,99301.75
2023-01-08T07:11:20.359Z,99292.13
2023-01-08T07:13:50.788Z,99299.06
2023-01-08T07:16:25.236Z,99293.03
2023-01-08T07:18:53.083Z,99296.59
2023-01-08T07:21:26.173Z,99288.75
2023-01-08T07:23:56.077Z,99295.47
2023-01-08T07:26:24.941Z,99287.50
2023-01-08T07:28:56.360Z,99292.00
2023-01-08T07:31:25.329Z,99289.09
2023-01-08T07:33:56.503Z,99282.38
2023-01-08T07:36:25.110Z,99270.88
2023-01-08T07:38:56.295Z,99283.94
2023-01-08T07:41:25.190Z,99279.88
2023-01-08T07:43:55.507Z,99285.06
2023-01-08T07:46:23.428Z,99282.31
2023-01-08T07:48:55.786Z,99283.66
2023-01-08T07:51:23.880Z,99281.09
2023-01-08T07:53:53.422Z,99278.09
2023-01-08T07:56:26.717Z,99271.16
2023-01-08T07:58:54.911Z,99268.31
2023-01-08T08:01:27.028Z,99275.75
2023-01-08T08:03:58.516Z,99273.12
2023-01-08T08:06:28.926Z,99269.81
2023-01-08T08:09:02.414Z,99274.94
2023-01-08T08:11:33.133Z,99265.81
2023-01-08T08:14:10.220Z,99266.66
2023-01-08T08:16:40.947Z,99261.53
2023-01-08T08:19:12.855Z,99261.97
2023-01-08T08:21:43.399Z,99251.19
2023-01-08T08:24:12.308Z,99251.38
2023-01-08T08:26:45.101Z,99252.00
2023-01-08T08:29:18.366Z,99259.75
2023-01-08T08:31:47.881Z,99243.81
2023-01-08T08:34:20.504Z,99244.38
2023-01-08T08:36:57.160Z,99245.28
2023-01-08T08:39:27.000Z,99245.72
2023-01-08T08:41:55.627Z,99241.91
2023-01-08T08:44:27.485Z,99243.69
2023-01-08T08:46:57.788Z,99232.59
2023-01-08T08:49:26.249Z,99231.97
2023-01-08T08:51:56.895Z,99234.06
2023-01-08T08:54:28.627Z,99223.34
2023-01-08T08:56:57.270Z,99228.63
2023-01-08T08:59:25.710Z,99229.19
2023-01-08T09:01:55.952Z,99227.22
2023-01-08T09:04:27.828Z,99236.66
2023-01-08T09:06:56.630Z,99226.88
2023-01-08T09:09:29.929Z,99229.28
2023-01-08T09:11:58.148Z,99226.19
2023-01-08T09:14:27.340Z,99229.19
2023-01-08T09:16:56.789Z,99214.81
2023-01-08T09:19:27.117Z,99214.41
2023-01-08T09:21:55.970Z,99226.91
2023-01-08T09:24:24.855Z,99218.72
2023-01-08T09:26:57.728Z,99223.63
2023-01-08T09:29:27.153Z,99222.16
2023-01-08T09:31:55.720Z,99207.75
2023-01-08T09:34:29.023Z,99210.06
2023-01-08T09:37:01.458Z,99204.28
2023-01-08T09:39:33.143Z,99200.47
2023-01-08T09:42:09.742Z,99197.53
2023-01-08T09:44:41.578Z,99190.41
2023-01-08T09:47:39.767Z,99192.09
2023-01-08T09:50:16.524Z,99181.25
2023-01-08T09:52:49.956Z,99174.44
2023-01-08T09:55:18.917Z,99169.53
2023-01-08T09:57:47.719Z,99167.56
2023-01-08T10:00:27.667Z,99160.94
2023-01-08T10:02:59.808Z,99154.03
2023-01-08T10:05:33.189Z,99150.19
2023-01-08T10:08:04.936Z,99143.53
2023-01-08T10:10:38.955Z,99142.91
2023-01-08T10:13:08.782Z,99145.34
2023-01-08T10:15:37.829Z,99140.56
2023-01-08T10:18:14.441Z,99134.78
2023-01-08T10:20:44.157Z,99127.84
2023-01-08T10:23:15.572Z,99120.03
2023-01-08T10:26:03.625Z,99118.03
2023-01-08T10:28:40.001Z,99114.47
2023-01-08T10:31:17.533Z,99105.84
2023-01-08T10:33:52.717Z,99117.72
2023-01-08T10:36:28.701Z,99115.63
2023-01-08T10:39:02.282Z,99106.31
2023-01-08T10:41:37.116Z,99095.94
2023-01-08T10:44:17.221Z,99087.34
2023-01-08T10:46:51.731Z,99084.53
2023-01-08T10:49:37.084Z,99088.75
2023-01-08T10:52:23.438Z,99091.38
2023-01-08T10:54:52.758Z,99084.41
2023-01-08T10:57:32.348Z,99077.19
2023-01-08T11:00:02.269Z,99080.81
2023-01-08T11:02:39.697Z,99075.41
2023-01-08T11:05:11.417Z,99071.87
2023-01-08T11:07:40.967Z,99066.28
2023-01-08T11:10:30.482Z,99064.75
2023-01-08T11:13:02.208Z,99055.28
2023-01-08T11:15:42.275Z,99053.94
2023-01-08T11:18:20.921Z,99043.03
2023-01-08T11:20:49.754Z,99045.97
2023-01-08T11:23:27.687Z,99039.69
2023-01-08T11:26:32.607Z,99039.09
2023-01-08T11:29:14.826Z,99031.53
2023-01-08T11:31:56.032Z,99025.94
2023-01-08T11:35:03.484Z,99017.41
2023-01-08T11:37:36.287Z,99004.06
2023-01-08T11:40:19.625Z,99012.47
2023-01-08T11:43:25.369Z,99005.41
2023-01-08T11:46:23.789Z,98998.44
2023-01-08T11:49:25.422Z,98988.53
2023-01-08T11:52:24.606Z,98989.22
2023-01-08T11:55:23.217Z,98985.72
2023-01-08T11:58:11.648Z,98985.81
2023-01-08T12:01:04.830Z,98971.25
2023-01-08T12:03:53.311Z,98976.84
2023-01-08T12:06:53.438Z,98973.38
2023-01-08T12:09:40.485Z,98971.94
2023-01-08T12:12:28.502Z,98968.28
2023-01-08T12:15:29.622Z,98959.41
2023-01-08T12:18:41.133Z,98955.84
2023-01-08T12:21:26.753Z,98958.91
2023-01-08T12:24:22.098Z,98960.34
2023-01-08T12:27:10.089Z,98961.19
2023-01-08T12:30:02.050Z,98967.13
2023-01-08T12:32:55.962Z,98963.63
2023-01-08T12:35:40.082Z,98970.22
2023-01-08T12:38:34.338Z,98958.78
2023-01-08T12:41:25.825Z,98959.03
2023-01-08T12:44:12.396Z,98956.28
2023-01-08T12:46:45.101Z,98950.53
2023-01-08T12:49:25.607Z,98944.75
2023-01-08T12:52:12.183Z,98941.09
2023-01-08T12:55:47.129Z,98946.44
2023-01-08T12:58:43.805Z,98948.06
2023-01-08T13:01:44.962Z,98948.69
2023-01-08T13:04:15.267Z,98948.50
2023-01-08T13:07:05.294Z,98941.78
2023-01-08T13:09:34.807Z,98940.94
2023-01-08T13:12:03.279Z,98951.78
2023-01-08T13:15:03.513Z,98941.97
2023-01-08T13:17:39.233Z,98935.56
2023-01-08T13:20:09.005Z,98938.38
2023-01-08T13:22:41.581Z,98934.37
2023-01-08T13:25:27.059Z,98931.66
2023-01-08T13:27:57.338Z,98933.37
2023-01-08T13:30:43.548Z,98933.37
2023-01-08T13:33:39.974Z,98927.56
2023-01-08T13:36:25.765Z,98924.59
2023-01-08T13:39:06.400Z,98932.41
2023-01-08T13:41:55.233Z,98922.88
2023-01-08T13:44:29.967Z,98928.94
2023-01-08T13:47:04.963Z,98933.69
2023-01-08T13:50:06.311Z,98918.81
2023-01-08T13:52:43.562Z,98918.69
2023-01-08T13:55:24.430Z,98929.25
2023-01-08T13:58:02.954Z,98922.16
2023-01-08T14:00:48.134Z,98916.69
2023-01-08T14:03:35.606Z,98922.31
2023-01-08T14:06:30.553Z,98923.06
2023-01-08T14:09:05.512Z,98917.53
2023-01-08T14:11:47.892Z,98916.09
2023-01-08T14:14:24.014Z,98921.31
2023-01-08T14:16:59.763Z,98915.53
2023-01-08T14:19:31.461Z,98920.69
2023-01-08T14:22:04.355Z,98915.44
2023-01-08T14:24:37.293Z,98919.69
2023-01-08T14:27:05.540Z,98918.84
2023-01-08T14:29:39.356Z,98916.38
2023-01-08T14:32:16.587Z,98919.75
2023-01-08T14:34:48.828Z,98920.84
2023-01-08T14:37:19.411Z,98925.44
2023-01-08T14:39:55.113Z,98916.03
2023-01-08T14:42:44.464Z,98912.44
2023-01-08T14:45:28.960Z,98920.41
2023-01-08T14:48:01.936Z,98918.25
2023-01-08T14:50:42.341Z,98908.47
2023-01-08T14:53:26.317Z,98901.56
2023-01-08T14:55:57.526Z,98910.50
2023-01-08T14:58:30.816Z,98909.59
2023-01-08T15:01:20.526Z,98902.59
2023-01-08T15:03:52.805Z,98899.97
2023-01-08T15:06:28.791Z,98900.06
2023-01-08T15:09:00.480Z,98897.16
2023-01-08T15:11:35.327Z,98893.78
2023-01-08T15:14:15.135Z,98903.44
2023-01-08T15:16:43.600Z,98903.37
2023-01-08T15:19:30.792Z,98903.44
2023-01-08T15:22:02.405Z,98891.31
2023-01-08T15:24:41.672Z,98897.81
2023-01-08T15:27:19.714Z,98892.53
2023-01-08T15:29:53.144Z,98888.22
2023-01-08T15:32:29.342Z,98891.62
2023-01-08T15:35:01.564Z,98896.97
2023-01-08T15:37:31.520Z,98891.81
2023-01-08T15:40:00.796Z,98881.31
2023-01-08T15:42:52.347Z,98879.81
2023-01-08T15:45:29.532Z,98882.63
2023-01-08T15:48:01.608Z,98878.66
2023-01-08T15:50:40.899Z,98879.38
2023-01-08T15:53:36.023Z,98867.94
2023-01-08T15:56:08.832Z,98875.56
2023-01-08T15:58:45.514Z,98870.03
2023-01-08T16:01:14.340Z,98868.31
2023-01-08T16:03:44.877Z,98866.09
2023-01-08T16:06:13.728Z,98868.16
2023-01-08T16:08:46.185Z,98869.16
2023-01-08T16:11:16.806Z,98862.47
2023-01-08T16:13:46.490Z,98860.69
2023-01-08T16:16:17.148Z,98857.47
2023-01-08T16:18:47.858Z,98859.00
2023-01-08T16:21:15.448Z,98867.56
2023-01-08T16:23:42.662Z,98851.75
2023-01-08T16:26:17.726Z,98855.97
2023-01-08T16:28:45.315Z,98854.41
2023-01-08T16:31:13.062Z,98854.88
2023-01-08T16:33:43.972Z,98848.00
2023-01-08T16:36:16.659Z,98847.34
2023-01-08T16:38:49.616Z,98847.34
2023-01-08T16:41:20.313Z,98847.06
2023-01-08T16:43:49.179Z,98843.28
2023-01-08T16:46:19.470Z,98843.28
2023-01-08T16:48:51.430Z,98845.50
2023-01-08T16:51:22.570Z,98843.53
2023-01-08T16:53:56.432Z,98842.09
2023-01-08T16:56:27.825Z,98843.88
2023-01-08T16:58:59.075Z,98844.53
2023-01-08T17:01:28.347Z,98835.97
2023-01-08T17:04:00.409Z,98830.22
2023-01-08T17:06:30.931Z,98834.84
2023-01-08T17:09:01.975Z,98832.88
2023-01-08T17:11:33.983Z,98838.31
2023-01-08T17:14:06.610Z,98840.22
2023-01-08T17:16:35.837Z,98836.75
2023-01-08T17:19:04.719Z,98842.37
2023-01-08T17:21:34.132Z,98838.12
2023-01-08T17:24:02.937Z,98842.53
2023-01-08T17:26:31.987Z,98842.94
2023-01-08T17:29:04.216Z,98830.97
2023-01-08T17:31:40.525Z,98830.97
2023-01-08T17:34:17.437Z,98828.78
2023-01-08T17:36:46.398Z,98826.72
2023-01-08T17:39:18.602Z,98830.50
2023-01-08T17:42:10.327Z,98823.56
2023-01-08T17:44:38.736Z,98831.06
2023-01-08T17:47:09.093Z,98822.59
2023-01-08T17:49:37.041Z,98828.06
2023-01-08T17:52:10.620Z,98817.41
2023-01-08T17:54:39.288Z,98822.31
2023-01-08T17:57:09.052Z,98814.22
2023-01-08T17:59:37.528Z,98815.66
2023-01-08T18:02:16.287Z,98814.69
2023-01-08T18:04:46.067Z,98817.06
2023-01-08T18:07:15.657Z,98810.56
2023-01-08T18:09:47.513Z,98822.72
2023-01-08T18:12:16.763Z,98828.78
2023-01-08T18:14:50.024Z,98829.78
2023-01-08T18:17:20.546Z,98826.22
2023-01-08T18:19:48.778Z,98828.84
2023-01-08T18:22:17.209Z,98825.56
2023-01-08T18:24:47.597Z,98822.94
2023-01-08T18:27:15.906Z,98826.97
2023-01-08T18:29:46.584Z,98835.84
2023-01-08T18:32:20.030Z,98830.75
2023-01-08T18:34:49.174Z,98828.00
2023-01-08T18:37:23.347Z,98833.94
2023-01-08T18:39:52.963Z,98837.59
2023-01-08T18:42:28.132Z,98826.38
2023-01-08T18:44:58.609Z,98826.13
2023-01-08T18:47:28.983Z,98829.22
2023-01-08T18:50:03.096Z,98824.03
2023-01-08T18:52:32.097Z,98830.94
2023-01-08T18:54:59.619Z,98832.97
2023-01-08T18:57:30.140Z,98833.75
2023-01-08T18:59:58.679Z,98830.75
2023-01-08T19:02:29.069Z,98833.94
2023-01-08T19:04:56.973Z,98835.06
2023-01-08T19:07:27.538Z,98831.12
2023-01-08T19:10:00.390Z,98837.53
2023-01-08T19:12:31.988Z,98839.75
2023-01-08T19:14:59.786Z,98833.34
2023-01-08T19:17:30.985Z,98834.97
2023-01-08T19:20:03.145Z,98840.16
2023-01-08T19:22:32.640Z,98836.16
2023-01-08T19:25:00.295Z,98843.09
2023-01-08T19:27:29.713Z,98833.69
2023-01-08T19:29:57.075Z,98836.59
2023-01-08T19:32:26.619Z,98833.69
2023-01-08T19:34:54.081Z,98834.47
2023-01-08T19:37:21.841Z,98825.97
2023-01-08T19:39:50.693Z,98823.19
2023-01-08T19:42:37.409Z,98821.16
2023-01-08T19:45:05.679Z,98827.16
2023-01-08T19:47:33.428Z,98815.41
2023-01-08T19:50:02.566Z,98821.81
2023-01-08T19:52:33.651Z,98815.88
2023-01-08T19:55:02.589Z,98820.84
2023-01-08T19:57:33.376Z,98815.91
2023-01-08T20:00:00.542Z,98806.72
2023-01-08T20:02:29.062Z,98816.59
2023-01-08T20:04:56.871Z,98808.22
2023-01-08T20:07:27.254Z,98811.44
2023-01-08T20:09:55.466Z,98811.13
2023-01-08T20:12:25.907Z,98803.34
2023-01-08T20:14:54.859Z,98799.94
2023-01-08T20:17:26.563Z,98794.56
2023-01-08T20:20:03.891Z,98802.28
2023-01-08T20:22:33.411Z,98795.31
2023-01-08T20:25:01.272Z,98799.16
2023-01-08T20:27:29.675Z,98796.53
2023-01-08T20:30:05.074Z,98805.56
2023-01-08T20:32:34.496Z,98801.66
2023-01-08T20:35:11.450Z,98800.97
2023-01-08T20:37:38.657Z,98794.38
2023-01-08T20:40:14.359Z,98794.81
2023-01-08T20:42:48.323Z,98784.75
2023-01-08T20:45:18.005Z,98786.16
2023-01-08T20:47:45.401Z,98787.28
2023-01-08T20:50:19.933Z,98793.06
2023-01-08T20:52:52.412Z,98795.69
2023-01-08T20:55:25.333Z,98788.03
2023-01-08T20:57:53.944Z,98791.63
2023-01-08T21:00:27.262Z,98781.06
2023-01-08T21:03:01.218Z,98783.34
2023-01-08T21:05:30.265Z,98773.94
2023-01-08T21:08:00.330Z,98773.44
2023-01-08T21:10:28.168Z,98767.56
2023-01-08T21:12:58.097Z,98767.66
2023-01-08T21:15:28.586Z,98766.97
2023-01-08T21:18:01.776Z,98761.50
2023-01-08T21:20:29.903Z,98760.06
2023-01-08T21:23:01.264Z,98757.69
2023-01-08T21:25:35.013Z,98766.03
2023-01-08T21:28:05.226Z,98763.41
2023-01-08T21:30:33.994Z,98748.78
2023-01-08T21:33:03.479Z,98754.78
2023-01-08T21:35:34.458Z,98760.81
2023-01-08T21:38:03.843Z,98754.47
2023-01-08T21:40:34.362Z,98753.69
2023-01-08T21:43:21.234Z,98749.00
2023-01-08T21:46:05.466Z,98748.66
2023-01-08T21:48:39.360Z,98740.59
2023-01-08T21:51:31.660Z,98738.28
2023-01-08T21:54:07.846Z,98742.84
2023-01-08T21:56:41.216Z,98745.91
2023-01-08T21:59:11.356Z,98751.63
2023-01-08T22:01:42.017Z,98745.06
2023-01-08T22:04:17.425Z,98742.69
2023-01-08T22:06:47.729Z,98739.25
2023-01-08T22:09:16.517Z,98731.62
2023-01-08T22:11:45.248Z,98732.03
2023-01-08T22:14:17.199Z,98738.13
2023-01-08T22:16:48.624Z,98739.38
2023-01-08T22:19:23.079Z,98723.97
2023-01-08T22:21:53.818Z,98726.75
2023-01-08T22:24:22.784Z,98715.66
2023-01-08T22:26:52.451Z,98710.56
2023-01-08T22:29:21.733Z,98713.59
2023-01-08T22:31:54.667Z,98716.41
2023-01-08T22:34:25.887Z,98706.16
2023-01-08T22:36:56.464Z,98702.12
2023-01-08T22:39:36.686Z,98705.53
2023-01-08T22:42:05.753Z,98705.81
2023-01-08T22:44:37.751Z,98700.56
2023-01-08T22:47:09.396Z,98693.78
2023-01-08T22:49:39.690Z,98687.84
2023-01-08T22:52:15.497Z,98681.87
2023-01-08T22:54:48.590Z,98677.25
2023-01-08T22:57:25.048Z,98667.84
2023-01-08T22:59:53.960Z,98668.91
2023-01-08T23:02:28.533Z,98667.28
2023-01-08T23:04:57.093Z,98668.28
2023-01-08T23:07:29.473Z,98659.13
2023-01-08T23:10:00.360Z,98659.06
2023-01-08T23:12:27.567Z,98654.28
2023-01-08T23:14:57.849Z,98650.09
2023-01-08T23:17:27.276Z,98645.00
2023-01-08T23:19:54.795Z,98643.38
2023-01-08T23:22:23.414Z,98642.44
2023-01-08T23:24:57.059Z,98636.19
2023-01-08T23:27:26.975Z,98631.09
2023-01-08T23:29:56.773Z,98630.97
2023-01-08T23:32:34.900Z,98631.09
2023-01-08T23:35:07.411Z,98636.50
2023-01-08T23:37:36.312Z,98628.31
2023-01-08T23:40:07.016Z,98624.38
2023-01-08T23:42:34.819Z,98635.16
2023-01-08T23:45:01.965Z,98629.72
2023-01-08T23:47:30.640Z,98621.53
2023-01-08T23:50:02.196Z,98621.16
2023-01-08T23:52:33.194Z,98618.62
2023-01-08T23:55:01.148Z,98614.44
2023-01-08T23:57:30.265Z,98608.97
